sensor_id;sensor_type;location;lat;lon;timestamp;P1;durP1;ratioP1;P2;durP2;ratioP2
72286;SDS011;60221;45.696;16.076;2023-03-16T00:02:02;7.70;;;1.70;;
72286;SDS011;60221;45.696;16.076;2023-03-16T00:04:30;5.90;;;1.00;;
72286;SDS011;60221;45.696;16.076;2023-03-16T00:06:57;6.80;;;1.60;;
72286;SDS011;60221;45.696;16.076;2023-03-16T00:09:24;6.50;;;1.10;;
72286;SDS011;60221;45.696;16.076;2023-03-16T00:11:57;7.70;;;1.70;;
72286;SDS011;60221;45.696;16.076;2023-03-16T00:14:24;9.10;;;1.50;;
72286;SDS011;60221;45.696;16.076;2023-03-16T00:16:54;9.50;;;1.50;;
72286;SDS011;60221;45.696;16.076;2023-03-16T00:19:22;6.90;;;1.10;;
72286;SDS011;60221;45.696;16.076;2023-03-16T00:21:49;10.10;;;1.50;;
72286;SDS011;60221;45.696;16.076;2023-03-16T00:24:17;7.30;;;1.80;;
72286;SDS011;60221;45.696;16.076;2023-03-16T00:26:45;10.50;;;2.80;;
72286;SDS011;60221;45.696;16.076;2023-03-16T00:29:13;9.50;;;1.80;;
72286;SDS011;60221;45.696;16.076;2023-03-16T00:31:40;7.00;;;1.40;;
72286;SDS011;60221;45.696;16.076;2023-03-16T00:34:11;8.50;;;1.60;;
72286;SDS011;60221;45.696;16.076;2023-03-16T00:36:38;9.60;;;2.00;;
72286;SDS011;60221;45.696;16.076;2023-03-16T00:39:05;8.10;;;1.70;;
72286;SDS011;60221;45.696;16.076;2023-03-16T00:41:32;9.80;;;2.10;;
72286;SDS011;60221;45.696;16.076;2023-03-16T00:44:04;7.70;;;1.50;;
72286;SDS011;60221;45.696;16.076;2023-03-16T00:46:31;6.90;;;1.40;;
72286;SDS011;60221;45.696;16.076;2023-03-16T00:48:58;7.70;;;1.80;;
72286;SDS011;60221;45.696;16.076;2023-03-16T00:51:25;8.50;;;1.90;;
72286;SDS011;60221;45.696;16.076;2023-03-16T00:53:52;6.60;;;1.50;;
72286;SDS011;60221;45.696;16.076;2023-03-16T00:56:19;5.20;;;1.20;;
72286;SDS011;60221;45.696;16.076;2023-03-16T00:58:46;6.80;;;1.10;;
72286;SDS011;60221;45.696;16.076;2023-03-16T01:01:14;7.40;;;1.20;;
72286;SDS011;60221;45.696;16.076;2023-03-16T01:03:42;5.00;;;0.90;;
72286;SDS011;60221;45.696;16.076;2023-03-16T01:06:10;5.50;;;0.80;;
72286;SDS011;60221;45.696;16.076;2023-03-16T01:08:38;5.60;;;1.20;;
72286;SDS011;60221;45.696;16.076;2023-03-16T01:11:10;7.50;;;1.10;;
72286;SDS011;60221;45.696;16.076;2023-03-16T01:13:38;5.30;;;1.00;;
72286;SDS011;60221;45.696;16.076;2023-03-16T01:16:06;3.60;;;0.50;;
72286;SDS011;60221;45.696;16.076;2023-03-16T01:18:33;4.30;;;0.80;;
72286;SDS011;60221;45.696;16.076;2023-03-16T01:21:01;5.90;;;0.90;;
72286;SDS011;60221;45.696;16.076;2023-03-16T01:23:31;6.60;;;1.10;;
72286;SDS011;60221;45.696;16.076;2023-03-16T01:25:58;5.90;;;1.10;;
72286;SDS011;60221;45.696;16.076;2023-03-16T01:28:27;5.80;;;1.30;;
72286;SDS011;60221;45.696;16.076;2023-03-16T01:30:57;7.80;;;2.00;;
72286;SDS011;60221;45.696;16.076;2023-03-16T01:33:25;8.30;;;1.70;;
72286;SDS011;60221;45.696;16.076;2023-03-16T01:35:54;5.70;;;1.20;;
72286;SDS011;60221;45.696;16.076;2023-03-16T01:38:23;7.40;;;1.20;;
72286;SDS011;60221;45.696;16.076;2023-03-16T01:40:51;7.60;;;1.30;;
72286;SDS011;60221;45.696;16.076;2023-03-16T01:43:20;6.10;;;1.40;;
72286;SDS011;60221;45.696;16.076;2023-03-16T01:48:49;6.20;;;1.10;;
72286;SDS011;60221;45.696;16.076;2023-03-16T01:51:22;7.00;;;1.30;;
72286;SDS011;60221;45.696;16.076;2023-03-16T01:53:50;6.30;;;1.00;;
72286;SDS011;60221;45.696;16.076;2023-03-16T01:56:21;7.60;;;1.20;;
72286;SDS011;60221;45.696;16.076;2023-03-16T01:58:50;8.20;;;2.10;;
72286;SDS011;60221;45.696;16.076;2023-03-16T02:01:18;8.90;;;2.00;;
72286;SDS011;60221;45.696;16.076;2023-03-16T02:03:46;10.30;;;2.30;;
72286;SDS011;60221;45.696;16.076;2023-03-16T02:06:17;9.10;;;2.80;;
72286;SDS011;60221;45.696;16.076;2023-03-16T02:08:49;8.90;;;1.80;;
72286;SDS011;60221;45.696;16.076;2023-03-16T02:11:21;7.70;;;1.60;;
72286;SDS011;60221;45.696;16.076;2023-03-16T02:13:55;8.50;;;1.80;;
72286;SDS011;60221;45.696;16.076;2023-03-16T02:16:24;9.80;;;1.90;;
72286;SDS011;60221;45.696;16.076;2023-03-16T02:18:52;8.90;;;2.60;;
72286;SDS011;60221;45.696;16.076;2023-03-16T02:21:37;9.00;;;2.10;;
72286;SDS011;60221;45.696;16.076;2023-03-16T02:24:07;9.40;;;2.10;;
72286;SDS011;60221;45.696;16.076;2023-03-16T02:26:56;10.40;;;1.90;;
72286;SDS011;60221;45.696;16.076;2023-03-16T02:32:05;6.80;;;1.90;;
72286;SDS011;60221;45.696;16.076;2023-03-16T02:34:32;7.60;;;1.60;;
72286;SDS011;60221;45.696;16.076;2023-03-16T02:36:59;8.00;;;2.30;;
72286;SDS011;60221;45.696;16.076;2023-03-16T02:39:26;12.90;;;2.00;;
72286;SDS011;60221;45.696;16.076;2023-03-16T02:41:53;10.20;;;2.10;;
72286;SDS011;60221;45.696;16.076;2023-03-16T02:44:25;6.80;;;1.60;;
72286;SDS011;60221;45.696;16.076;2023-03-16T02:46:54;6.10;;;1.10;;
72286;SDS011;60221;45.696;16.076;2023-03-16T02:49:26;6.20;;;1.20;;
72286;SDS011;60221;45.696;16.076;2023-03-16T02:51:53;6.10;;;1.20;;
72286;SDS011;60221;45.696;16.076;2023-03-16T02:54:20;5.30;;;0.90;;
72286;SDS011;60221;45.696;16.076;2023-03-16T02:56:47;7.60;;;1.10;;
72286;SDS011;60221;45.696;16.076;2023-03-16T02:59:15;6.50;;;0.90;;
72286;SDS011;60221;45.696;16.076;2023-03-16T03:01:42;7.50;;;0.90;;
72286;SDS011;60221;45.696;16.076;2023-03-16T03:04:08;4.70;;;0.80;;
72286;SDS011;60221;45.696;16.076;2023-03-16T03:06:35;4.80;;;0.90;;
72286;SDS011;60221;45.696;16.076;2023-03-16T03:09:02;4.30;;;0.80;;
72286;SDS011;60221;45.696;16.076;2023-03-16T03:11:30;5.40;;;0.90;;
72286;SDS011;60221;45.696;16.076;2023-03-16T03:13:56;7.10;;;1.50;;
72286;SDS011;60221;45.696;16.076;2023-03-16T03:16:25;10.00;;;2.40;;
72286;SDS011;60221;45.696;16.076;2023-03-16T03:18:53;7.50;;;1.90;;
72286;SDS011;60221;45.696;16.076;2023-03-16T03:22:15;10.10;;;2.80;;
72286;SDS011;60221;45.696;16.076;2023-03-16T03:24:44;9.40;;;3.20;;
72286;SDS011;60221;45.696;16.076;2023-03-16T03:27:11;11.70;;;4.10;;
72286;SDS011;60221;45.696;16.076;2023-03-16T03:29:39;13.60;;;3.90;;
72286;SDS011;60221;45.696;16.076;2023-03-16T03:32:06;13.90;;;3.70;;
72286;SDS011;60221;45.696;16.076;2023-03-16T03:34:33;9.40;;;2.60;;
72286;SDS011;60221;45.696;16.076;2023-03-16T03:37:00;9.80;;;1.90;;
72286;SDS011;60221;45.696;16.076;2023-03-16T03:39:28;8.50;;;1.90;;
72286;SDS011;60221;45.696;16.076;2023-03-16T03:41:55;9.00;;;2.70;;
72286;SDS011;60221;45.696;16.076;2023-03-16T03:44:22;10.30;;;2.30;;
72286;SDS011;60221;45.696;16.076;2023-03-16T03:46:49;7.80;;;2.40;;
72286;SDS011;60221;45.696;16.076;2023-03-16T03:49:17;8.40;;;1.80;;
72286;SDS011;60221;45.696;16.076;2023-03-16T03:51:46;8.70;;;2.30;;
72286;SDS011;60221;45.696;16.076;2023-03-16T03:54:16;10.20;;;3.00;;
72286;SDS011;60221;45.696;16.076;2023-03-16T03:56:43;8.00;;;2.00;;
72286;SDS011;60221;45.696;16.076;2023-03-16T03:59:12;6.20;;;1.40;;
72286;SDS011;60221;45.696;16.076;2023-03-16T04:02:02;8.60;;;2.00;;
72286;SDS011;60221;45.696;16.076;2023-03-16T04:04:38;7.90;;;2.10;;
72286;SDS011;60221;45.696;16.076;2023-03-16T04:07:07;6.70;;;1.30;;
72286;SDS011;60221;45.696;16.076;2023-03-16T04:09:33;7.00;;;1.70;;
72286;SDS011;60221;45.696;16.076;2023-03-16T04:12:02;11.60;;;2.20;;
72286;SDS011;60221;45.696;16.076;2023-03-16T04:14:29;5.10;;;1.30;;
72286;SDS011;60221;45.696;16.076;2023-03-16T04:16:56;7.20;;;1.70;;
72286;SDS011;60221;45.696;16.076;2023-03-16T04:19:23;7.40;;;1.90;;
72286;SDS011;60221;45.696;16.076;2023-03-16T04:21:51;10.50;;;2.40;;
72286;SDS011;60221;45.696;16.076;2023-03-16T04:24:19;11.00;;;3.60;;
72286;SDS011;60221;45.696;16.076;2023-03-16T04:26:47;11.60;;;2.70;;
72286;SDS011;60221;45.696;16.076;2023-03-16T04:29:15;8.30;;;2.20;;
72286;SDS011;60221;45.696;16.076;2023-03-16T04:31:45;10.10;;;2.60;;
72286;SDS011;60221;45.696;16.076;2023-03-16T04:34:12;8.40;;;2.50;;
72286;SDS011;60221;45.696;16.076;2023-03-16T04:36:39;7.20;;;2.00;;
72286;SDS011;60221;45.696;16.076;2023-03-16T04:39:08;8.90;;;1.20;;
72286;SDS011;60221;45.696;16.076;2023-03-16T04:41:36;8.50;;;1.40;;
72286;SDS011;60221;45.696;16.076;2023-03-16T04:44:08;10.00;;;3.10;;
72286;SDS011;60221;45.696;16.076;2023-03-16T04:46:35;6.70;;;1.60;;
72286;SDS011;60221;45.696;16.076;2023-03-16T04:49:05;5.70;;;1.10;;
72286;SDS011;60221;45.696;16.076;2023-03-16T04:51:35;7.30;;;1.70;;
72286;SDS011;60221;45.696;16.076;2023-03-16T04:54:06;7.00;;;0.90;;
72286;SDS011;60221;45.696;16.076;2023-03-16T04:56:34;9.40;;;2.30;;
72286;SDS011;60221;45.696;16.076;2023-03-16T04:59:05;7.60;;;1.60;;
72286;SDS011;60221;45.696;16.076;2023-03-16T05:01:40;6.30;;;1.20;;
72286;SDS011;60221;45.696;16.076;2023-03-16T05:04:11;7.10;;;1.70;;
72286;SDS011;60221;45.696;16.076;2023-03-16T05:06:44;5.80;;;1.20;;
72286;SDS011;60221;45.696;16.076;2023-03-16T05:09:12;7.70;;;1.90;;
72286;SDS011;60221;45.696;16.076;2023-03-16T05:11:39;8.00;;;1.30;;
72286;SDS011;60221;45.696;16.076;2023-03-16T05:14:08;9.10;;;2.10;;
72286;SDS011;60221;45.696;16.076;2023-03-16T05:16:47;7.70;;;1.70;;
72286;SDS011;60221;45.696;16.076;2023-03-16T05:22:03;9.70;;;3.20;;
72286;SDS011;60221;45.696;16.076;2023-03-16T05:24:30;15.10;;;6.80;;
72286;SDS011;60221;45.696;16.076;2023-03-16T05:26:57;10.40;;;5.30;;
72286;SDS011;60221;45.696;16.076;2023-03-16T05:29:24;7.70;;;3.20;;
72286;SDS011;60221;45.696;16.076;2023-03-16T05:31:52;9.50;;;3.10;;
72286;SDS011;60221;45.696;16.076;2023-03-16T05:34:21;9.80;;;2.40;;
72286;SDS011;60221;45.696;16.076;2023-03-16T05:36:49;10.30;;;3.30;;
72286;SDS011;60221;45.696;16.076;2023-03-16T05:39:16;9.20;;;3.60;;
72286;SDS011;60221;45.696;16.076;2023-03-16T05:41:45;8.20;;;2.20;;
72286;SDS011;60221;45.696;16.076;2023-03-16T05:44:35;23.80;;;7.20;;
72286;SDS011;60221;45.696;16.076;2023-03-16T05:47:02;21.80;;;6.30;;
72286;SDS011;60221;45.696;16.076;2023-03-16T05:49:30;15.20;;;4.00;;
72286;SDS011;60221;45.696;16.076;2023-03-16T05:51:58;9.80;;;3.10;;
72286;SDS011;60221;45.696;16.076;2023-03-16T05:54:26;10.90;;;3.20;;
72286;SDS011;60221;45.696;16.076;2023-03-16T05:56:53;13.80;;;5.00;;
72286;SDS011;60221;45.696;16.076;2023-03-16T05:59:20;16.10;;;5.20;;
72286;SDS011;60221;45.696;16.076;2023-03-16T06:01:51;12.40;;;3.70;;
72286;SDS011;60221;45.696;16.076;2023-03-16T06:04:19;14.30;;;4.00;;
72286;SDS011;60221;45.696;16.076;2023-03-16T06:06:46;12.30;;;3.40;;
72286;SDS011;60221;45.696;16.076;2023-03-16T06:09:18;12.70;;;3.20;;
72286;SDS011;60221;45.696;16.076;2023-03-16T06:11:44;8.30;;;2.60;;
72286;SDS011;60221;45.696;16.076;2023-03-16T06:14:13;8.90;;;2.60;;
72286;SDS011;60221;45.696;16.076;2023-03-16T06:16:40;10.00;;;1.90;;
72286;SDS011;60221;45.696;16.076;2023-03-16T06:19:08;7.30;;;1.70;;
72286;SDS011;60221;45.696;16.076;2023-03-16T06:21:35;8.40;;;2.20;;
72286;SDS011;60221;45.696;16.076;2023-03-16T06:24:06;7.70;;;1.30;;
72286;SDS011;60221;45.696;16.076;2023-03-16T06:26:35;7.30;;;1.80;;
72286;SDS011;60221;45.696;16.076;2023-03-16T06:29:03;7.50;;;1.60;;
72286;SDS011;60221;45.696;16.076;2023-03-16T06:31:32;13.70;;;4.40;;
72286;SDS011;60221;45.696;16.076;2023-03-16T06:34:00;11.50;;;3.30;;
72286;SDS011;60221;45.696;16.076;2023-03-16T06:36:28;16.70;;;6.00;;
72286;SDS011;60221;45.696;16.076;2023-03-16T06:38:57;15.40;;;6.40;;
72286;SDS011;60221;45.696;16.076;2023-03-16T06:41:29;14.30;;;6.00;;
72286;SDS011;60221;45.696;16.076;2023-03-16T06:43:55;15.10;;;7.50;;
72286;SDS011;60221;45.696;16.076;2023-03-16T06:46:23;25.70;;;12.20;;
72286;SDS011;60221;45.696;16.076;2023-03-16T06:48:51;19.20;;;8.50;;
72286;SDS011;60221;45.696;16.076;2023-03-16T06:51:18;28.90;;;13.30;;
72286;SDS011;60221;45.696;16.076;2023-03-16T06:53:45;38.10;;;13.90;;
72286;SDS011;60221;45.696;16.076;2023-03-16T06:56:12;23.10;;;10.40;;
72286;SDS011;60221;45.696;16.076;2023-03-16T06:58:41;13.90;;;4.40;;
72286;SDS011;60221;45.696;16.076;2023-03-16T07:01:08;12.70;;;4.30;;
72286;SDS011;60221;45.696;16.076;2023-03-16T07:03:34;13.50;;;4.00;;
72286;SDS011;60221;45.696;16.076;2023-03-16T07:06:06;87.90;;;31.90;;
72286;SDS011;60221;45.696;16.076;2023-03-16T07:08:35;47.70;;;19.90;;
72286;SDS011;60221;45.696;16.076;2023-03-16T07:11:01;29.30;;;13.50;;
72286;SDS011;60221;45.696;16.076;2023-03-16T07:13:28;15.70;;;7.70;;
72286;SDS011;60221;45.696;16.076;2023-03-16T07:15:55;15.90;;;8.50;;
72286;SDS011;60221;45.696;16.076;2023-03-16T07:18:23;9.60;;;4.70;;
72286;SDS011;60221;45.696;16.076;2023-03-16T07:20:52;6.30;;;1.70;;
72286;SDS011;60221;45.696;16.076;2023-03-16T07:23:21;5.90;;;1.40;;
72286;SDS011;60221;45.696;16.076;2023-03-16T07:25:50;7.00;;;1.90;;
72286;SDS011;60221;45.696;16.076;2023-03-16T07:28:18;3.50;;;1.00;;
72286;SDS011;60221;45.696;16.076;2023-03-16T07:30:45;6.60;;;1.80;;
72286;SDS011;60221;45.696;16.076;2023-03-16T07:33:32;6.90;;;1.30;;
72286;SDS011;60221;45.696;16.076;2023-03-16T07:36:01;7.10;;;1.00;;
72286;SDS011;60221;45.696;16.076;2023-03-16T07:38:35;4.10;;;0.90;;
72286;SDS011;60221;45.696;16.076;2023-03-16T07:41:03;4.40;;;0.90;;
72286;SDS011;60221;45.696;16.076;2023-03-16T07:43:30;5.10;;;0.90;;
72286;SDS011;60221;45.696;16.076;2023-03-16T07:45:57;5.60;;;0.80;;
72286;SDS011;60221;45.696;16.076;2023-03-16T07:48:24;4.10;;;0.80;;
72286;SDS011;60221;45.696;16.076;2023-03-16T07:50:55;4.50;;;0.80;;
72286;SDS011;60221;45.696;16.076;2023-03-16T07:53:22;6.30;;;1.30;;
72286;SDS011;60221;45.696;16.076;2023-03-16T07:55:58;4.40;;;0.80;;
72286;SDS011;60221;45.696;16.076;2023-03-16T07:58:25;6.80;;;0.80;;
72286;SDS011;60221;45.696;16.076;2023-03-16T08:00:57;4.00;;;0.60;;
72286;SDS011;60221;45.696;16.076;2023-03-16T08:03:24;6.10;;;1.00;;
72286;SDS011;60221;45.696;16.076;2023-03-16T08:05:52;5.30;;;1.00;;
72286;SDS011;60221;45.696;16.076;2023-03-16T08:08:21;4.30;;;0.60;;
72286;SDS011;60221;45.696;16.076;2023-03-16T08:10:48;4.00;;;0.70;;
72286;SDS011;60221;45.696;16.076;2023-03-16T08:13:17;7.80;;;1.20;;
72286;SDS011;60221;45.696;16.076;2023-03-16T08:15:45;3.80;;;0.90;;
72286;SDS011;60221;45.696;16.076;2023-03-16T08:18:19;4.90;;;0.80;;
72286;SDS011;60221;45.696;16.076;2023-03-16T08:20:47;4.20;;;0.70;;
72286;SDS011;60221;45.696;16.076;2023-03-16T08:23:14;4.30;;;0.60;;
72286;SDS011;60221;45.696;16.076;2023-03-16T08:25:41;3.60;;;0.50;;
72286;SDS011;60221;45.696;16.076;2023-03-16T08:28:11;4.30;;;0.70;;
72286;SDS011;60221;45.696;16.076;2023-03-16T08:30:45;5.00;;;1.20;;
72286;SDS011;60221;45.696;16.076;2023-03-16T08:33:24;4.20;;;0.60;;
72286;SDS011;60221;45.696;16.076;2023-03-16T08:35:51;3.40;;;0.30;;
72286;SDS011;60221;45.696;16.076;2023-03-16T08:38:18;5.00;;;0.50;;
72286;SDS011;60221;45.696;16.076;2023-03-16T08:40:46;4.40;;;0.40;;
72286;SDS011;60221;45.696;16.076;2023-03-16T08:43:15;4.30;;;0.60;;
72286;SDS011;60221;45.696;16.076;2023-03-16T08:45:43;3.90;;;0.30;;
72286;SDS011;60221;45.696;16.076;2023-03-16T08:48:10;5.30;;;0.30;;
72286;SDS011;60221;45.696;16.076;2023-03-16T08:50:40;2.80;;;0.50;;
72286;SDS011;60221;45.696;16.076;2023-03-16T08:53:09;3.40;;;0.40;;
72286;SDS011;60221;45.696;16.076;2023-03-16T08:55:36;3.80;;;0.20;;
72286;SDS011;60221;45.696;16.076;2023-03-16T08:58:03;2.90;;;0.10;;
72286;SDS011;60221;45.696;16.076;2023-03-16T09:00:30;3.50;;;0.30;;
72286;SDS011;60221;45.696;16.076;2023-03-16T09:02:57;4.70;;;0.40;;
72286;SDS011;60221;45.696;16.076;2023-03-16T09:05:24;11.80;;;3.60;;
72286;SDS011;60221;45.696;16.076;2023-03-16T09:07:51;13.80;;;4.10;;
72286;SDS011;60221;45.696;16.076;2023-03-16T09:10:20;6.40;;;1.30;;
72286;SDS011;60221;45.696;16.076;2023-03-16T09:12:49;20.70;;;6.70;;
72286;SDS011;60221;45.696;16.076;2023-03-16T09:15:16;6.50;;;1.90;;
72286;SDS011;60221;45.696;16.076;2023-03-16T09:17:43;5.60;;;1.50;;
72286;SDS011;60221;45.696;16.076;2023-03-16T09:20:12;3.90;;;0.30;;
72286;SDS011;60221;45.696;16.076;2023-03-16T09:22:56;4.00;;;0.50;;
72286;SDS011;60221;45.696;16.076;2023-03-16T09:25:23;4.60;;;0.50;;
72286;SDS011;60221;45.696;16.076;2023-03-16T09:27:51;3.40;;;0.40;;
72286;SDS011;60221;45.696;16.076;2023-03-16T09:30:18;3.40;;;0.40;;
72286;SDS011;60221;45.696;16.076;2023-03-16T09:32:45;4.30;;;0.30;;
72286;SDS011;60221;45.696;16.076;2023-03-16T09:35:14;5.10;;;0.50;;
72286;SDS011;60221;45.696;16.076;2023-03-16T09:37:41;3.50;;;0.50;;
72286;SDS011;60221;45.696;16.076;2023-03-16T09:40:29;3.70;;;0.40;;
72286;SDS011;60221;45.696;16.076;2023-03-16T09:43:07;5.10;;;0.60;;
72286;SDS011;60221;45.696;16.076;2023-03-16T09:48:21;29.20;;;9.40;;
72286;SDS011;60221;45.696;16.076;2023-03-16T09:50:50;8.10;;;1.80;;
72286;SDS011;60221;45.696;16.076;2023-03-16T09:53:30;6.20;;;1.20;;
72286;SDS011;60221;45.696;16.076;2023-03-16T09:55:59;4.00;;;0.60;;
72286;SDS011;60221;45.696;16.076;2023-03-16T09:58:27;6.10;;;1.90;;
72286;SDS011;60221;45.696;16.076;2023-03-16T10:06:16;3.60;;;0.40;;
72286;SDS011;60221;45.696;16.076;2023-03-16T10:08:44;5.30;;;0.50;;
72286;SDS011;60221;45.696;16.076;2023-03-16T10:13:50;3.20;;;0.20;;
72286;SDS011;60221;45.696;16.076;2023-03-16T10:18:49;2.30;;;0.30;;
72286;SDS011;60221;45.696;16.076;2023-03-16T10:21:18;3.50;;;0.40;;
72286;SDS011;60221;45.696;16.076;2023-03-16T10:23:47;4.10;;;0.80;;
72286;SDS011;60221;45.696;16.076;2023-03-16T10:26:27;4.30;;;0.40;;
72286;SDS011;60221;45.696;16.076;2023-03-16T10:28:55;3.00;;;0.30;;
72286;SDS011;60221;45.696;16.076;2023-03-16T10:31:22;6.50;;;0.70;;
72286;SDS011;60221;45.696;16.076;2023-03-16T10:33:51;3.80;;;0.30;;
72286;SDS011;60221;45.696;16.076;2023-03-16T10:36:25;7.40;;;2.20;;
72286;SDS011;60221;45.696;16.076;2023-03-16T10:38:59;7.80;;;3.40;;
72286;SDS011;60221;45.696;16.076;2023-03-16T10:41:29;3.80;;;0.60;;
72286;SDS011;60221;45.696;16.076;2023-03-16T10:44:01;3.70;;;0.50;;
72286;SDS011;60221;45.696;16.076;2023-03-16T10:46:57;4.70;;;1.00;;
72286;SDS011;60221;45.696;16.076;2023-03-16T10:51:53;3.20;;;0.70;;
72286;SDS011;60221;45.696;16.076;2023-03-16T10:56:57;26.30;;;7.20;;
72286;SDS011;60221;45.696;16.076;2023-03-16T10:59:33;37.40;;;11.80;;
72286;SDS011;60221;45.696;16.076;2023-03-16T11:02:01;5.70;;;1.20;;
72286;SDS011;60221;45.696;16.076;2023-03-16T11:04:29;16.50;;;6.10;;
72286;SDS011;60221;45.696;16.076;2023-03-16T11:06:57;6.00;;;1.70;;
72286;SDS011;60221;45.696;16.076;2023-03-16T11:09:33;7.50;;;2.40;;
72286;SDS011;60221;45.696;16.076;2023-03-16T11:12:11;5.70;;;1.40;;
72286;SDS011;60221;45.696;16.076;2023-03-16T11:14:42;3.80;;;0.70;;
72286;SDS011;60221;45.696;16.076;2023-03-16T11:17:11;3.30;;;0.40;;
72286;SDS011;60221;45.696;16.076;2023-03-16T11:19:50;6.50;;;1.80;;
72286;SDS011;60221;45.696;16.076;2023-03-16T11:22:19;3.30;;;0.60;;
72286;SDS011;60221;45.696;16.076;2023-03-16T11:24:59;4.00;;;0.40;;
72286;SDS011;60221;45.696;16.076;2023-03-16T11:27:36;4.30;;;0.40;;
72286;SDS011;60221;45.696;16.076;2023-03-16T11:32:37;3.00;;;0.30;;
72286;SDS011;60221;45.696;16.076;2023-03-16T11:35:16;3.20;;;0.30;;
72286;SDS011;60221;45.696;16.076;2023-03-16T11:37:54;3.60;;;0.40;;
72286;SDS011;60221;45.696;16.076;2023-03-16T11:45:32;6.10;;;0.70;;
72286;SDS011;60221;45.696;16.076;2023-03-16T11:48:08;3.30;;;0.30;;
72286;SDS011;60221;45.696;16.076;2023-03-16T11:53:22;4.20;;;1.10;;
72286;SDS011;60221;45.696;16.076;2023-03-16T11:56:52;4.00;;;0.90;;
72286;SDS011;60221;45.696;16.076;2023-03-16T12:01:26;5.10;;;0.40;;
72286;SDS011;60221;45.696;16.076;2023-03-16T12:14:19;4.30;;;0.60;;
72286;SDS011;60221;45.696;16.076;2023-03-16T12:21:48;4.20;;;0.70;;
72286;SDS011;60221;45.696;16.076;2023-03-16T12:24:21;4.10;;;0.80;;
72286;SDS011;60221;45.696;16.076;2023-03-16T12:26:50;4.90;;;0.40;;
72286;SDS011;60221;45.696;16.076;2023-03-16T12:31:48;5.00;;;0.70;;
72286;SDS011;60221;45.696;16.076;2023-03-16T12:34:30;4.10;;;0.30;;
72286;SDS011;60221;45.696;16.076;2023-03-16T12:37:01;1.60;;;0.10;;
72286;SDS011;60221;45.696;16.076;2023-03-16T12:49:46;5.00;;;0.40;;
72286;SDS011;60221;45.696;16.076;2023-03-16T12:52:13;2.60;;;0.30;;
72286;SDS011;60221;45.696;16.076;2023-03-16T12:54:53;3.50;;;0.60;;
72286;SDS011;60221;45.696;16.076;2023-03-16T12:57:31;3.50;;;0.30;;
72286;SDS011;60221;45.696;16.076;2023-03-16T12:59:58;3.80;;;0.40;;
72286;SDS011;60221;45.696;16.076;2023-03-16T13:02:30;4.60;;;0.20;;
72286;SDS011;60221;45.696;16.076;2023-03-16T13:05:16;4.00;;;0.40;;
72286;SDS011;60221;45.696;16.076;2023-03-16T13:07:48;3.80;;;0.40;;
72286;SDS011;60221;45.696;16.076;2023-03-16T13:10:16;2.10;;;0.30;;
72286;SDS011;60221;45.696;16.076;2023-03-16T13:12:46;3.90;;;0.50;;
72286;SDS011;60221;45.696;16.076;2023-03-16T13:17:46;3.20;;;0.30;;
72286;SDS011;60221;45.696;16.076;2023-03-16T13:20:30;2.70;;;0.20;;
72286;SDS011;60221;45.696;16.076;2023-03-16T13:23:08;5.20;;;0.50;;
72286;SDS011;60221;45.696;16.076;2023-03-16T13:28:32;2.90;;;0.50;;
72286;SDS011;60221;45.696;16.076;2023-03-16T13:31:01;3.50;;;0.50;;
72286;SDS011;60221;45.696;16.076;2023-03-16T13:33:29;2.60;;;0.30;;
72286;SDS011;60221;45.696;16.076;2023-03-16T13:35:57;4.30;;;0.40;;
72286;SDS011;60221;45.696;16.076;2023-03-16T13:38:25;4.50;;;0.80;;
72286;SDS011;60221;45.696;16.076;2023-03-16T13:41:01;4.40;;;0.50;;
72286;SDS011;60221;45.696;16.076;2023-03-16T13:43:28;4.90;;;1.40;;
72286;SDS011;60221;45.696;16.076;2023-03-16T13:45:57;3.40;;;0.40;;
72286;SDS011;60221;45.696;16.076;2023-03-16T13:48:24;3.10;;;0.30;;
72286;SDS011;60221;45.696;16.076;2023-03-16T13:50:52;3.10;;;0.20;;
72286;SDS011;60221;45.696;16.076;2023-03-16T13:53:21;3.00;;;0.40;;
72286;SDS011;60221;45.696;16.076;2023-03-16T13:55:50;4.60;;;0.50;;
72286;SDS011;60221;45.696;16.076;2023-03-16T13:58:19;2.20;;;0.20;;
72286;SDS011;60221;45.696;16.076;2023-03-16T14:00:47;2.90;;;0.30;;
72286;SDS011;60221;45.696;16.076;2023-03-16T14:03:15;2.90;;;0.20;;
72286;SDS011;60221;45.696;16.076;2023-03-16T14:05:43;3.50;;;0.30;;
72286;SDS011;60221;45.696;16.076;2023-03-16T14:08:18;2.80;;;0.10;;
72286;SDS011;60221;45.696;16.076;2023-03-16T14:10:45;2.40;;;0.20;;
72286;SDS011;60221;45.696;16.076;2023-03-16T14:15:56;3.00;;;0.30;;
72286;SDS011;60221;45.696;16.076;2023-03-16T14:18:36;2.60;;;0.20;;
72286;SDS011;60221;45.696;16.076;2023-03-16T14:21:07;4.60;;;0.20;;
72286;SDS011;60221;45.696;16.076;2023-03-16T14:23:36;4.40;;;0.30;;
72286;SDS011;60221;45.696;16.076;2023-03-16T14:26:04;2.20;;;0.20;;
72286;SDS011;60221;45.696;16.076;2023-03-16T14:28:32;5.90;;;0.20;;
72286;SDS011;60221;45.696;16.076;2023-03-16T14:31:07;3.00;;;0.20;;
72286;SDS011;60221;45.696;16.076;2023-03-16T14:33:35;1.70;;;0.10;;
72286;SDS011;60221;45.696;16.076;2023-03-16T14:36:15;2.00;;;0.20;;
72286;SDS011;60221;45.696;16.076;2023-03-16T14:38:46;3.20;;;0.20;;
72286;SDS011;60221;45.696;16.076;2023-03-16T14:41:24;2.00;;;0.20;;
72286;SDS011;60221;45.696;16.076;2023-03-16T14:43:58;4.60;;;0.20;;
72286;SDS011;60221;45.696;16.076;2023-03-16T14:46:27;2.50;;;0.30;;
72286;SDS011;60221;45.696;16.076;2023-03-16T14:49:02;2.80;;;0.20;;
72286;SDS011;60221;45.696;16.076;2023-03-16T14:51:29;3.80;;;0.30;;
72286;SDS011;60221;45.696;16.076;2023-03-16T14:53:57;4.30;;;0.20;;
72286;SDS011;60221;45.696;16.076;2023-03-16T14:56:30;1.30;;;0.10;;
72286;SDS011;60221;45.696;16.076;2023-03-16T14:58:58;2.80;;;0.30;;
72286;SDS011;60221;45.696;16.076;2023-03-16T15:01:24;3.70;;;0.20;;
72286;SDS011;60221;45.696;16.076;2023-03-16T15:03:52;1.80;;;0.10;;
72286;SDS011;60221;45.696;16.076;2023-03-16T15:06:19;3.50;;;0.20;;
72286;SDS011;60221;45.696;16.076;2023-03-16T15:08:47;2.40;;;0.20;;
72286;SDS011;60221;45.696;16.076;2023-03-16T15:11:16;2.60;;;0.10;;
72286;SDS011;60221;45.696;16.076;2023-03-16T15:13:47;2.50;;;0.10;;
72286;SDS011;60221;45.696;16.076;2023-03-16T15:16:14;7.00;;;0.50;;
72286;SDS011;60221;45.696;16.076;2023-03-16T15:18:41;2.60;;;0.20;;
72286;SDS011;60221;45.696;16.076;2023-03-16T15:21:09;4.40;;;0.10;;
72286;SDS011;60221;45.696;16.076;2023-03-16T15:23:38;1.50;;;0.00;;
72286;SDS011;60221;45.696;16.076;2023-03-16T15:26:07;3.80;;;0.20;;
72286;SDS011;60221;45.696;16.076;2023-03-16T15:28:35;1.60;;;0.20;;
72286;SDS011;60221;45.696;16.076;2023-03-16T15:31:02;2.80;;;0.10;;
72286;SDS011;60221;45.696;16.076;2023-03-16T15:33:29;3.20;;;0.10;;
72286;SDS011;60221;45.696;16.076;2023-03-16T15:35:57;3.00;;;0.10;;
72286;SDS011;60221;45.696;16.076;2023-03-16T15:38:29;2.50;;;0.20;;
72286;SDS011;60221;45.696;16.076;2023-03-16T15:40:57;1.90;;;0.10;;
72286;SDS011;60221;45.696;16.076;2023-03-16T15:43:25;4.30;;;0.10;;
72286;SDS011;60221;45.696;16.076;2023-03-16T15:45:54;6.50;;;0.50;;
72286;SDS011;60221;45.696;16.076;2023-03-16T15:48:21;2.10;;;0.10;;
72286;SDS011;60221;45.696;16.076;2023-03-16T15:50:51;3.70;;;0.20;;
72286;SDS011;60221;45.696;16.076;2023-03-16T15:53:23;3.20;;;0.30;;
72286;SDS011;60221;45.696;16.076;2023-03-16T15:56:00;8.60;;;1.00;;
72286;SDS011;60221;45.696;16.076;2023-03-16T15:58:29;6.00;;;0.70;;
72286;SDS011;60221;45.696;16.076;2023-03-16T16:00:57;5.10;;;0.60;;
72286;SDS011;60221;45.696;16.076;2023-03-16T16:03:26;3.30;;;0.50;;